Time;durP1;ratioP1;P1;durP2;ratioP2;P2;SDS_P1;SDS_P2;PMS_P1;PMS_P2;Temp;Humidity;BMP_temperature;BMP_pressure;BME280_temperature;BME280_humidity;BME280_pressure;Samples;Min_cycle;Max_cycle;Signal;HPM_P1;HPM_P2
2022/09/02 00:00:53;;;;;;;0.80;0.80;;;7.90;99.90;;;;;;5113117;28;20702;-68
2022/09/02 00:03:19;;;;;;;0.60;0.60;;;7.90;99.90;;;;;;5113004;28;20223;-68
2022/09/02 00:05:45;;;;;;;0.70;0.70;;;7.80;99.90;;;;;;5113261;28;20240;-67
2022/09/02 00:08:11;;;;;;;0.60;0.60;;;7.80;99.90;;;;;;5108022;28;20188;-68
2022/09/02 00:10:40;;;;;;;0.60;0.60;;;7.80;99.90;;;;;;5092567;28;20668;-68
2022/09/02 00:13:08;;;;;;;0.60;0.60;;;7.80;99.90;;;;;;5092770;28;20185;-68
2022/09/02 00:15:34;;;;;;;0.60;0.60;;;7.70;99.90;;;;;;5097065;28;20220;-67
2022/09/02 00:18:00;;;;;;;0.70;0.70;;;7.60;99.90;;;;;;5113016;28;20272;-66
2022/09/02 00:20:27;;;;;;;0.75;0.75;;;7.60;99.90;;;;;;5115702;28;20195;-67
2022/09/02 00:22:53;;;;;;;0.68;0.68;;;7.60;99.90;;;;;;5116709;28;20202;-67
2022/09/02 00:25:20;;;;;;;0.60;0.60;;;7.70;99.90;;;;;;5116468;28;20187;-68
2022/09/02 00:27:45;;;;;;;0.55;0.55;;;7.80;99.90;;;;;;5116677;28;20658;-68
2022/09/02 00:30:13;;;;;;;0.68;0.68;;;7.90;99.90;;;;;;5116367;28;20191;-68
2022/09/02 00:32:38;;;;;;;0.70;0.70;;;8.00;99.90;;;;;;5116241;28;20187;-68
2022/09/02 00:35:05;;;;;;;0.60;0.60;;;8.10;99.90;;;;;;5116424;28;20183;-68
2022/09/02 00:37:31;;;;;;;0.57;0.57;;;8.20;99.90;;;;;;5098124;28;20289;-68
2022/09/02 00:39:57;;;;;;;0.70;0.70;;;8.20;99.90;;;;;;5097998;28;20228;-68
2022/09/02 00:42:24;;;;;;;0.60;0.60;;;8.30;99.90;;;;;;5134291;27;20279;-67
2022/09/02 00:44:50;;;;;;;0.70;0.70;;;8.30;99.90;;;;;;5136931;27;20191;-68
2022/09/02 00:47:16;;;;;;;0.60;0.60;;;8.30;99.90;;;;;;5136835;27;20199;-68
2022/09/02 00:49:46;;;;;;;0.60;0.60;;;8.40;99.90;;;;;;5136441;27;20251;-68
2022/09/02 00:52:18;;;;;;;0.70;0.70;;;8.40;99.90;;;;;;5136600;27;20215;-68
2022/09/02 00:55:03;;;;;;;0.70;0.70;;;8.40;99.90;;;;;;5136637;27;20782;-68
2022/09/02 00:57:35;;;;;;;0.60;0.60;;;8.40;99.90;;;;;;5117982;27;20282;-68
2022/09/02 01:00:12;;;;;;;0.60;0.60;;;8.40;99.90;;;;;;5136935;27;20218;-68
2022/09/02 01:02:40;;;;;;;0.60;0.60;;;8.40;99.90;;;;;;5136457;27;20197;-68
2022/09/02 01:07:40;;;;;;;0.73;0.73;;;8.30;99.90;;;;;;5052771;28;20237;-77
2022/09/02 01:13:31;;;;;;;0.70;0.70;;;8.20;99.90;;;;;;5070259;28;20574;-78
2022/09/02 01:19:46;;;;;;;0.60;0.60;;;8.00;99.90;;;;;;4896122;26;20601;-69
2022/09/02 01:22:19;;;;;;;0.60;0.60;;;8.00;99.90;;;;;;5095350;28;20203;-69
2022/09/02 01:25:28;;;;;;;0.70;0.70;;;8.00;99.90;;;;;;5114272;22;20205;-70
2022/09/02 01:27:59;;;;;;;0.60;0.60;;;8.10;99.90;;;;;;5062378;28;20698;-71
2022/09/02 01:30:45;;;;;;;0.60;0.60;;;8.00;99.90;;;;;;5056139;28;20720;-71
2022/09/02 01:33:30;;;;;;;0.60;0.60;;;8.00;99.90;;;;;;5044422;28;20237;-71
2022/09/02 01:36:29;;;;;;;0.70;0.70;;;8.00;99.90;;;;;;5054978;28;20659;-72
2022/09/02 01:39:10;;;;;;;0.65;0.65;;;7.90;99.90;;;;;;5045349;28;20266;-72
2022/09/02 01:41:52;;;;;;;0.60;0.60;;;7.90;99.90;;;;;;5036793;28;20280;-72
2022/09/02 01:45:00;;;;;;;0.70;0.70;;;7.80;99.90;;;;;;5053293;28;20202;-70
2022/09/02 01:47:30;;;;;;;0.70;0.70;;;7.80;99.90;;;;;;5034586;28;20294;-73
2022/09/02 01:50:15;;;;;;;0.60;0.60;;;7.80;99.90;;;;;;5017282;28;20260;-72
2022/09/02 01:52:41;;;;;;;5.45;1.00;;;7.70;99.90;;;;;;5034743;28;20279;-72
2022/09/02 01:55:50;;;;;;;0.60;0.60;;;7.70;99.90;;;;;;5016766;28;20293;-72
2022/09/02 01:58:20;;;;;;;0.70;0.70;;;7.70;99.90;;;;;;5033854;28;20194;-72
2022/09/02 02:00:47;;;;;;;0.60;0.60;;;7.70;99.90;;;;;;5020715;28;20780;-72
2022/09/02 02:03:13;;;;;;;0.60;0.60;;;7.70;99.90;;;;;;5035945;28;20232;-72
2022/09/02 02:05:40;;;;;;;0.70;0.70;;;7.70;99.90;;;;;;5054629;28;20198;-73
2022/09/02 02:08:48;;;;;;;0.63;0.63;;;7.70;99.90;;;;;;5053715;28;20255;-72
2022/09/02 02:11:24;;;;;;;0.60;0.60;;;7.80;99.90;;;;;;5052716;28;20296;-70
2022/09/02 02:13:53;;;;;;;0.60;0.60;;;7.90;99.90;;;;;;5054078;28;20729;-71
2022/09/02 02:16:19;;;;;;;0.60;0.60;;;7.90;99.90;;;;;;5036221;28;20675;-72
2022/09/02 02:18:55;;;;;;;0.70;0.70;;;8.00;99.90;;;;;;5036188;28;20189;-72
2022/09/02 02:21:25;;;;;;;0.70;0.70;;;8.10;99.90;;;;;;5036045;28;20199;-72
2022/09/02 02:23:51;;;;;;;0.63;0.63;;;8.10;99.90;;;;;;5035693;28;20229;-71
2022/09/02 02:26:17;;;;;;;0.65;0.65;;;8.20;99.90;;;;;;5035931;28;20639;-69
2022/09/02 02:28:42;;;;;;;0.90;0.90;;;8.20;99.90;;;;;;5052613;28;20234;-69
2022/09/02 02:31:08;;;;;;;0.63;0.63;;;8.20;99.90;;;;;;5053738;28;20206;-72
2022/09/02 02:33:34;;;;;;;0.75;0.75;;;8.30;99.90;;;;;;5053309;28;20204;-71
2022/09/02 02:36:03;;;;;;;0.93;0.93;;;8.30;99.90;;;;;;5053810;28;20200;-71
2022/09/02 02:38:29;;;;;;;0.70;0.70;;;8.30;99.90;;;;;;5053601;28;20213;-71
2022/09/02 02:40:56;;;;;;;0.60;0.60;;;8.30;99.90;;;;;;5053122;28;20254;-72
2022/09/02 02:43:24;;;;;;;0.60;0.60;;;8.30;99.90;;;;;;5052549;28;20259;-71
2022/09/02 02:45:50;;;;;;;0.98;0.98;;;8.30;99.90;;;;;;5035571;28;20280;-71
2022/09/02 02:48:27;;;;;;;0.70;0.70;;;8.20;99.90;;;;;;5053529;28;20739;-73
2022/09/02 02:50:53;;;;;;;0.60;0.60;;;8.20;99.90;;;;;;5035697;28;20266;-70
2022/09/02 02:53:44;;;;;;;0.60;0.60;;;8.20;99.90;;;;;;5035104;28;20592;-71
2022/09/02 02:56:11;;;;;;;0.60;0.60;;;8.10;99.90;;;;;;5035659;28;20196;-72
2022/09/02 02:58:36;;;;;;;0.70;0.70;;;8.10;99.90;;;;;;5035257;28;20571;-71
2022/09/02 03:01:02;;;;;;;4.22;1.40;;;8.00;99.90;;;;;;5045087;28;20198;-71
2022/09/02 03:03:28;;;;;;;0.70;0.70;;;8.00;99.90;;;;;;5052238;28;20221;-71
2022/09/02 03:09:24;;;;;;;0.60;0.60;;;7.90;99.90;;;;;;5003247;28;20304;-71
2022/09/02 03:11:50;;;;;;;0.63;0.63;;;7.80;99.90;;;;;;5053717;28;20216;-71
2022/09/02 03:14:17;;;;;;;0.70;0.70;;;7.80;99.90;;;;;;5053215;28;20194;-71
2022/09/02 03:16:43;;;;;;;0.60;0.60;;;7.80;99.90;;;;;;5035598;28;20201;-71
2022/09/02 03:19:12;;;;;;;0.60;0.60;;;7.80;99.90;;;;;;5053856;28;20193;-71
2022/09/02 03:21:59;;;;;;;0.60;0.60;;;7.80;99.90;;;;;;5053455;28;20189;-72
2022/09/02 03:24:25;;;;;;;0.70;0.70;;;7.80;99.90;;;;;;5035145;28;20216;-71
2022/09/02 03:26:51;;;;;;;0.60;0.60;;;7.80;99.90;;;;;;5023381;28;20242;-72
2022/09/02 03:29:17;;;;;;;0.60;0.60;;;7.80;99.90;;;;;;5015296;28;20238;-71
2022/09/02 03:31:43;;;;;;;0.60;0.60;;;7.80;99.90;;;;;;5032723;28;20206;-70
2022/09/02 03:34:08;;;;;;;0.65;0.65;;;7.70;99.90;;;;;;5015611;28;20194;-71
2022/09/02 03:36:42;;;;;;;0.70;0.70;;;7.70;99.90;;;;;;5032936;28;20198;-70
2022/09/02 03:39:10;;;;;;;0.70;0.70;;;7.60;99.90;;;;;;5033121;28;20190;-71
2022/09/02 03:41:39;;;;;;;0.60;0.60;;;7.60;99.90;;;;;;5036810;28;20813;-71
2022/09/02 03:44:07;;;;;;;0.60;0.60;;;7.60;99.90;;;;;;5053323;28;20200;-71
2022/09/02 03:46:34;;;;;;;0.70;0.70;;;7.60;99.90;;;;;;5051956;28;20197;-70
2022/09/02 03:49:00;;;;;;;0.60;0.60;;;7.60;99.90;;;;;;5053006;28;20190;-72
2022/09/02 03:51:26;;;;;;;0.80;0.80;;;7.60;99.90;;;;;;5034830;28;20232;-71
2022/09/02 03:53:53;;;;;;;0.70;0.70;;;7.50;99.90;;;;;;5054049;28;20204;-71
2022/09/02 03:56:19;;;;;;;0.68;0.68;;;7.60;99.90;;;;;;5056764;28;20252;-71
2022/09/02 03:58:48;;;;;;;0.70;0.70;;;7.60;99.90;;;;;;5056288;28;20201;-72
2022/09/02 04:01:18;;;;;;;0.60;0.60;;;7.60;99.90;;;;;;5055919;28;20197;-71
2022/09/02 04:03:43;;;;;;;1.05;1.05;;;7.60;99.90;;;;;;5055996;28;20197;-72
2022/09/02 04:06:15;;;;;;;0.60;0.60;;;7.70;99.90;;;;;;5055917;28;20249;-70
2022/09/02 04:08:43;;;;;;;0.65;0.65;;;7.70;99.90;;;;;;5055816;28;20660;-70
2022/09/02 04:11:16;;;;;;;1.00;0.77;;;7.70;99.90;;;;;;5055878;28;20206;-71
2022/09/02 04:13:43;;;;;;;0.70;0.70;;;7.70;99.90;;;;;;5038401;28;20729;-71
2022/09/02 04:16:12;;;;;;;3.30;1.02;;;7.70;99.90;;;;;;5056263;28;20244;-71
2022/09/02 04:18:38;;;;;;;0.60;0.60;;;7.80;99.90;;;;;;5056188;28;20194;-71
2022/09/02 04:21:05;;;;;;;0.60;0.60;;;7.90;99.90;;;;;;5056056;28;20205;-70
2022/09/02 04:23:31;;;;;;;0.65;0.65;;;7.90;99.90;;;;;;5038186;28;20212;-71
2022/09/02 04:25:58;;;;;;;1.85;0.95;;;8.00;99.90;;;;;;5042320;28;20327;-71
2022/09/02 04:28:24;;;;;;;0.68;0.68;;;8.10;99.90;;;;;;5075947;28;20193;-71
2022/09/02 04:30:50;;;;;;;0.57;0.57;;;8.10;99.90;;;;;;5075978;28;20852;-70
2022/09/02 04:33:16;;;;;;;0.60;0.60;;;8.20;99.90;;;;;;5075937;28;20189;-70
2022/09/02 04:35:44;;;;;;;0.60;0.60;;;8.20;99.90;;;;;;5076019;28;20540;-71
2022/09/02 04:38:10;;;;;;;0.60;0.60;;;8.30;99.90;;;;;;5068777;28;20212;-71
2022/09/02 04:40:44;;;;;;;0.60;0.60;;;8.30;99.90;;;;;;5055723;28;20249;-71
2022/09/02 04:43:10;;;;;;;0.60;0.60;;;8.30;99.90;;;;;;5055651;28;20552;-70
2022/09/02 04:45:42;;;;;;;0.60;0.60;;;8.40;99.90;;;;;;5055647;28;20268;-70
2022/09/02 04:48:09;;;;;;;0.60;0.60;;;8.50;99.90;;;;;;5055668;28;20202;-71
2022/09/02 04:50:36;;;;;;;0.60;0.60;;;8.50;99.90;;;;;;5054796;28;20209;-71
2022/09/02 04:53:04;;;;;;;0.60;0.60;;;8.60;99.90;;;;;;5055781;28;20251;-71
2022/09/02 04:55:30;;;;;;;0.70;0.70;;;8.80;99.90;;;;;;5055495;28;20192;-71
2022/09/02 04:57:56;;;;;;;0.65;0.65;;;8.90;99.90;;;;;;5055426;28;20193;-71
2022/09/02 05:00:21;;;;;;;0.70;0.70;;;9.10;99.90;;;;;;5055343;28;20251;-71
2022/09/02 05:02:47;;;;;;;0.68;0.68;;;9.30;99.90;;;;;;5055409;28;20208;-71
2022/09/02 05:05:13;;;;;;;2.15;1.17;;;9.40;99.90;;;;;;5037493;28;20231;-70
2022/09/02 05:07:39;;;;;;;0.60;0.60;;;9.60;99.90;;;;;;5055198;28;20194;-71
2022/09/02 05:10:06;;;;;;;0.60;0.60;;;9.70;99.90;;;;;;5055512;28;20200;-70
2022/09/02 05:12:34;;;;;;;0.70;0.70;;;9.90;99.90;;;;;;5054963;28;20213;-71
2022/09/02 05:15:00;;;;;;;0.60;0.60;;;10.10;99.90;;;;;;5037510;28;20671;-71
2022/09/02 05:17:27;;;;;;;0.60;0.60;;;10.30;99.90;;;;;;5037074;28;20559;-71
2022/09/02 05:19:53;;;;;;;0.60;0.60;;;10.40;99.90;;;;;;5037273;28;20640;-70
2022/09/02 05:22:19;;;;;;;0.60;0.60;;;10.50;99.90;;;;;;5036986;28;20752;-71
2022/09/02 05:24:45;;;;;;;0.60;0.60;;;10.50;99.90;;;;;;5055113;28;20202;-71
2022/09/02 05:27:14;;;;;;;0.70;0.70;;;10.50;99.90;;;;;;5069354;28;20236;-71
2022/09/02 05:29:41;;;;;;;0.55;0.55;;;10.60;99.90;;;;;;5056911;28;20637;-71
2022/09/02 05:32:07;;;;;;;0.60;0.60;;;10.60;99.90;;;;;;5074333;28;20674;-71
2022/09/02 05:34:34;;;;;;;0.60;0.60;;;10.70;99.90;;;;;;5066442;28;20186;-71
2022/09/02 05:37:01;;;;;;;0.50;0.50;;;10.90;99.90;;;;;;5054829;28;20192;-71
2022/09/02 05:39:27;;;;;;;0.50;0.50;;;11.10;99.90;;;;;;5054579;28;20205;-71
2022/09/02 05:41:52;;;;;;;0.60;0.60;;;11.30;99.90;;;;;;5059879;28;20526;-71
2022/09/02 05:44:18;;;;;;;0.60;0.60;;;11.50;99.90;;;;;;5056704;28;20242;-71
2022/09/02 05:46:45;;;;;;;0.82;0.82;;;11.60;99.90;;;;;;5074455;28;20203;-71
2022/09/02 05:49:17;;;;;;;0.60;0.60;;;11.80;99.90;;;;;;5074519;28;20189;-71
2022/09/02 05:51:47;;;;;;;0.60;0.60;;;11.90;99.90;;;;;;5074371;28;20212;-71
2022/09/02 05:54:23;;;;;;;0.60;0.60;;;12.10;99.90;;;;;;5060327;28;20201;-71
2022/09/02 05:56:53;;;;;;;14.70;2.05;;;12.30;99.90;;;;;;5054603;28;20189;-71
2022/09/02 05:59:20;;;;;;;0.50;0.50;;;12.40;99.90;;;;;;5061862;28;20572;-71
2022/09/02 06:01:47;;;;;;;0.50;0.50;;;12.50;99.90;;;;;;5056407;28;20682;-71
2022/09/02 06:04:14;;;;;;;0.50;0.50;;;12.40;99.90;;;;;;5056374;28;20254;-71
2022/09/02 06:06:40;;;;;;;0.60;0.60;;;12.20;99.90;;;;;;5074110;28;20736;-71
2022/09/02 06:09:08;;;;;;;0.50;0.50;;;12.20;99.90;;;;;;5074214;28;20243;-71
2022/09/02 06:11:38;;;;;;;0.40;0.40;;;12.10;99.90;;;;;;5073599;28;20212;-71
2022/09/02 06:14:06;;;;;;;0.50;0.50;;;12.20;99.90;;;;;;5056146;28;20673;-71
2022/09/02 06:16:33;;;;;;;0.50;0.50;;;12.40;99.90;;;;;;5073512;28;20670;-71
2022/09/02 06:18:59;;;;;;;1.65;1.50;;;12.60;99.90;;;;;;5074148;28;20667;-71
2022/09/02 06:21:24;;;;;;;0.52;0.52;;;12.70;99.90;;;;;;5073077;28;20200;-71
2022/09/02 06:23:50;;;;;;;0.50;0.50;;;12.70;99.90;;;;;;5073805;28;20215;-71
2022/09/02 06:26:17;;;;;;;0.40;0.40;;;12.60;99.90;;;;;;5073528;28;20233;-71
2022/09/02 06:28:43;;;;;;;0.52;0.52;;;12.40;99.90;;;;;;5073027;28;20257;-72
2022/09/02 06:31:13;;;;;;;0.60;0.60;;;12.30;99.90;;;;;;5061858;28;20255;-71
2022/09/02 06:33:40;;;;;;;0.60;0.60;;;12.20;99.90;;;;;;5034868;28;20201;-71
2022/09/02 06:36:08;;;;;;;0.60;0.60;;;12.00;99.90;;;;;;5053087;28;20216;-71
2022/09/02 06:38:43;;;;;;;0.60;0.60;;;12.00;99.90;;;;;;5052815;28;20659;-71
2022/09/02 06:41:14;;;;;;;0.50;0.50;;;12.10;99.90;;;;;;5052936;28;20560;-71
2022/09/02 06:43:40;;;;;;;0.80;0.80;;;12.10;99.90;;;;;;5051675;28;20197;-71
2022/09/02 06:46:06;;;;;;;0.40;0.40;;;12.00;99.90;;;;;;5052929;28;20564;-71
2022/09/02 06:48:32;;;;;;;0.50;0.50;;;11.90;99.90;;;;;;5034779;28;20279;-71
2022/09/02 06:50:58;;;;;;;0.50;0.50;;;11.90;99.90;;;;;;5052475;28;20266;-71
2022/09/02 06:53:23;;;;;;;0.50;0.50;;;12.00;99.90;;;;;;5052543;28;20284;-71
2022/09/02 06:55:50;;;;;;;0.55;0.55;;;12.10;99.90;;;;;;5052623;28;20201;-72
2022/09/02 06:58:16;;;;;;;0.50;0.50;;;12.10;99.90;;;;;;5052655;28;20189;-71
2022/09/02 07:00:42;;;;;;;0.50;0.50;;;12.20;99.90;;;;;;5052459;28;20201;-71
2022/09/02 07:06:08;;;;;;;0.40;0.40;;;12.40;99.90;;;;;;5052639;28;20204;-73
2022/09/02 07:08:37;;;;;;;0.50;0.50;;;12.40;99.90;;;;;;5034606;28;20215;-71
2022/09/02 07:11:04;;;;;;;0.50;0.50;;;12.60;99.90;;;;;;5052387;28;20209;-72
2022/09/02 07:13:30;;;;;;;0.73;0.63;;;12.70;99.90;;;;;;5052378;28;20193;-72
2022/09/02 07:15:56;;;;;;;0.40;0.40;;;12.80;99.90;;;;;;5051981;28;20686;-72
2022/09/02 07:18:22;;;;;;;0.50;0.50;;;12.80;99.90;;;;;;5052247;28;20193;-72
2022/09/02 07:20:48;;;;;;;0.50;0.50;;;12.90;99.90;;;;;;5052556;28;20555;-72
2022/09/02 07:23:14;;;;;;;0.50;0.50;;;12.90;99.90;;;;;;5052279;28;20201;-72
2022/09/02 07:25:41;;;;;;;0.50;0.50;;;12.90;99.90;;;;;;5002240;28;1482029;-72
2022/09/02 07:28:08;;;;;;;0.40;0.40;;;13.00;99.90;;;;;;5072971;28;20201;-72
2022/09/02 07:30:34;;;;;;;0.40;0.40;;;13.10;99.90;;;;;;5076828;28;20670;-72
2022/09/02 07:33:00;;;;;;;0.40;0.40;;;13.10;99.90;;;;;;5059150;28;20371;-73
2022/09/02 07:35:27;;;;;;;0.40;0.40;;;13.20;99.90;;;;;;5076736;28;20268;-72
2022/09/02 07:37:53;;;;;;;0.40;0.40;;;13.20;99.90;;;;;;5076915;28;20184;-72
2022/09/02 07:40:19;;;;;;;0.50;0.50;;;13.40;99.90;;;;;;5076964;28;20275;-72
2022/09/02 07:42:44;;;;;;;0.60;0.60;;;13.40;99.90;;;;;;5055504;28;20194;-72
2022/09/02 07:45:11;;;;;;;0.50;0.50;;;13.50;99.90;;;;;;5056895;28;20193;-71
2022/09/02 07:47:36;;;;;;;0.40;0.40;;;13.60;99.90;;;;;;5056678;28;20190;-70
2022/09/02 07:50:04;;;;;;;0.45;0.45;;;14.00;99.90;;;;;;5056906;28;20196;-70
2022/09/02 07:52:29;;;;;;;0.43;0.43;;;14.30;99.90;;;;;;5058382;28;20211;-71
2022/09/02 07:54:55;;;;;;;0.50;0.50;;;14.60;99.90;;;;;;5076456;28;20188;-72
2022/09/02 07:57:21;;;;;;;0.32;0.32;;;14.70;99.90;;;;;;5076038;28;20667;-71
2022/09/02 07:59:47;;;;;;;0.40;0.40;;;14.60;99.90;;;;;;5076658;28;20200;-72
2022/09/02 08:02:15;;;;;;;0.40;0.40;;;14.90;99.90;;;;;;5076581;28;20201;-70
2022/09/02 08:04:42;;;;;;;0.40;0.40;;;15.10;99.90;;;;;;5069631;28;20205;-71
2022/09/02 08:07:09;;;;;;;0.40;0.40;;;15.40;99.90;;;;;;5056592;28;20202;-70
2022/09/02 08:09:35;;;;;;;0.40;0.40;;;15.60;99.90;;;;;;5056422;28;20269;-71
2022/09/02 08:12:01;;;;;;;0.40;0.40;;;15.70;99.90;;;;;;5056311;28;20297;-71
2022/09/02 08:14:28;;;;;;;0.30;0.30;;;15.90;99.90;;;;;;5056251;28;20647;-71
2022/09/02 08:16:56;;;;;;;0.30;0.30;;;16.30;99.90;;;;;;5056341;28;20186;-71
2022/09/02 08:19:23;;;;;;;0.30;0.30;;;16.60;99.90;;;;;;5038272;28;20251;-71
2022/09/02 08:21:50;;;;;;;0.30;0.30;;;16.80;99.90;;;;;;5056322;28;20194;-71
2022/09/02 08:24:15;;;;;;;0.40;0.40;;;16.80;99.90;;;;;;5072003;28;20239;-71
2022/09/02 08:26:41;;;;;;;0.30;0.30;;;16.30;99.90;;;;;;5086374;28;20648;-71
2022/09/02 08:29:08;;;;;;;0.32;0.32;;;16.30;99.90;;;;;;5078182;28;20309;-71
2022/09/02 08:31:36;;;;;;;0.30;0.30;;;16.20;99.90;;;;;;5096004;28;20233;-70
2022/09/02 08:34:02;;;;;;;0.30;0.30;;;16.20;99.90;;;;;;5087698;28;20268;-70
2022/09/02 08:36:28;;;;;;;0.20;0.20;;;16.30;99.90;;;;;;5075664;28;20197;-70
2022/09/02 08:38:56;;;;;;;0.30;0.30;;;16.10;99.90;;;;;;5075355;28;20731;-73
2022/09/02 08:41:25;;;;;;;0.40;0.40;;;16.00;99.90;;;;;;5074705;28;20203;-71
2022/09/02 08:43:55;;;;;;;0.40;0.40;;;15.70;99.90;;;;;;5075829;28;20197;-71
2022/09/02 08:46:25;;;;;;;0.30;0.30;;;15.90;99.90;;;;;;5075567;28;20196;-70
2022/09/02 08:49:11;;;;;;;0.50;0.50;;;16.20;99.90;;;;;;5057489;28;20212;-70
2022/09/02 08:51:47;;;;;;;0.30;0.30;;;16.40;99.90;;;;;;5075406;28;20205;-69
2022/09/02 08:54:25;;;;;;;0.35;0.35;;;16.80;99.90;;;;;;5057368;28;20192;-71
2022/09/02 08:56:51;;;;;;;0.30;0.30;;;16.90;99.90;;;;;;5075696;28;20233;-71
2022/09/02 08:59:26;;;;;;;0.30;0.30;;;16.90;99.90;;;;;;5075661;28;20654;-71
2022/09/02 09:02:04;;;;;;;0.30;0.30;;;16.80;99.90;;;;;;5075542;28;20204;-70
2022/09/02 09:05:07;;;;;;;0.30;0.30;;;16.80;99.90;;;;;;5056840;28;20200;-70
2022/09/02 09:08:03;;;;;;;0.30;0.30;;;16.80;99.90;;;;;;5056748;28;20291;-71
2022/09/02 09:10:32;;;;;;;0.30;0.30;;;16.60;99.90;;;;;;5075146;28;20248;-71
2022/09/02 09:13:00;;;;;;;0.28;0.28;;;16.80;99.90;;;;;;5057213;28;20197;-70
2022/09/02 09:15:35;;;;;;;0.30;0.30;;;16.90;99.90;;;;;;5075077;28;20709;-70
2022/09/02 09:18:06;;;;;;;0.30;0.30;;;17.00;99.90;;;;;;5075270;28;20284;-70
2022/09/02 09:20:37;;;;;;;0.47;0.47;;;17.10;99.90;;;;;;5090703;28;20697;-71
2022/09/02 09:23:17;;;;;;;0.30;0.30;;;17.40;99.90;;;;;;5094846;28;20193;-71
2022/09/02 09:25:46;;;;;;;0.30;0.30;;;17.20;99.90;;;;;;5094725;28;20196;-71
2022/09/02 09:28:11;;;;;;;1.38;0.47;;;17.30;99.90;;;;;;5094697;28;20192;-70
2022/09/02 09:30:38;;;;;;;0.40;0.40;;;17.30;99.90;;;;;;5090513;28;20948;-70
2022/09/02 09:33:04;;;;;;;0.25;0.25;;;17.00;99.90;;;;;;5074789;28;20192;-70
2022/09/02 09:35:46;;;;;;;0.30;0.30;;;16.70;99.90;;;;;;5074729;28;20694;-70
2022/09/02 09:38:13;;;;;;;0.30;0.30;;;16.40;99.90;;;;;;5059034;28;20219;-70
2022/09/02 09:40:39;;;;;;;0.30;0.30;;;16.20;99.90;;;;;;5074662;28;20727;-71
2022/09/02 09:43:04;;;;;;;0.32;0.32;;;16.10;99.90;;;;;;5074568;28;20275;-70
2022/09/02 09:45:46;;;;;;;0.60;0.60;;;16.10;99.90;;;;;;5056740;28;20197;-70
2022/09/02 09:48:22;;;;;;;0.35;0.35;;;16.20;99.90;;;;;;5054701;28;20276;-71
2022/09/02 09:51:08;;;;;;;0.30;0.30;;;16.00;99.90;;;;;;5054166;28;20288;-71
2022/09/02 09:53:36;;;;;;;0.30;0.30;;;16.00;99.90;;;;;;5052945;28;20205;-71
2022/09/02 09:56:19;;;;;;;0.30;0.30;;;15.90;99.90;;;;;;5054436;28;20686;-70
2022/09/02 09:58:46;;;;;;;0.30;0.30;;;15.80;99.90;;;;;;5054534;28;20293;-70
2022/09/02 10:01:16;;;;;;;0.30;0.30;;;15.70;99.90;;;;;;5036397;28;20293;-70
2022/09/02 10:04:08;;;;;;;0.30;0.30;;;15.70;99.90;;;;;;5054324;28;20225;-70
2022/09/02 10:06:43;;;;;;;0.30;0.30;;;15.70;99.90;;;;;;5054065;28;20212;-70
2022/09/02 10:09:14;;;;;;;0.30;0.30;;;15.90;99.90;;;;;;5054246;28;20199;-70
2022/09/02 10:11:54;;;;;;;0.30;0.30;;;15.80;99.90;;;;;;5053939;28;20736;-70
2022/09/02 10:14:20;;;;;;;0.30;0.30;;;15.90;99.90;;;;;;5036019;28;20664;-70
2022/09/02 10:17:05;;;;;;;0.30;0.30;;;15.80;99.90;;;;;;5052020;28;20247;-70
2022/09/02 10:19:49;;;;;;;0.30;0.30;;;15.80;99.90;;;;;;5055889;28;20666;-71
2022/09/02 10:22:34;;;;;;;0.40;0.40;;;15.80;99.90;;;;;;5055804;28;20193;-70
2022/09/02 10:25:06;;;;;;;0.50;0.50;;;15.60;99.90;;;;;;5073763;28;20193;-70
2022/09/02 10:27:32;;;;;;;0.30;0.30;;;15.50;99.90;;;;;;5073529;28;20224;-70
2022/09/02 10:30:17;;;;;;;0.30;0.30;;;15.40;99.90;;;;;;5073967;28;20197;-71
2022/09/02 10:33:06;;;;;;;0.30;0.30;;;15.30;99.90;;;;;;5073465;28;20287;-70
2022/09/02 10:35:58;;;;;;;0.40;0.40;;;15.30;99.90;;;;;;5073038;28;20192;-70
2022/09/02 10:38:43;;;;;;;0.35;0.35;;;15.10;99.90;;;;;;5073021;28;20196;-70
2022/09/02 10:41:44;;;;;;;0.30;0.30;;;15.10;99.90;;;;;;5059567;28;20573;-71
2022/09/02 10:44:19;;;;;;;0.40;0.40;;;15.20;99.90;;;;;;5052075;28;20204;-70
2022/09/02 10:46:56;;;;;;;0.77;0.70;;;15.10;99.90;;;;;;5053171;28;20602;-71
2022/09/02 10:49:40;;;;;;;0.30;0.30;;;15.10;99.90;;;;;;5053548;28;20189;-70
2022/09/02 10:52:19;;;;;;;0.50;0.50;;;15.20;99.90;;;;;;5052928;28;20246;-71
2022/09/02 10:55:08;;;;;;;0.40;0.40;;;15.20;99.90;;;;;;5053424;28;20189;-70
2022/09/02 10:57:59;;;;;;;0.50;0.50;;;15.20;99.90;;;;;;5052834;28;20193;-71
2022/09/02 11:00:27;;;;;;;0.30;0.30;;;15.20;99.90;;;;;;5052834;28;20188;-70
2022/09/02 11:03:19;;;;;;;0.40;0.40;;;15.20;99.90;;;;;;5052678;28;20559;-71
2022/09/02 11:06:19;;;;;;;0.50;0.50;;;15.10;99.90;;;;;;5053336;28;20190;-70
2022/09/02 11:09:02;;;;;;;0.30;0.30;;;15.20;99.90;;;;;;5044960;28;20300;-72
2022/09/02 11:11:56;;;;;;;0.40;0.40;;;15.30;99.90;;;;;;5037993;28;20200;-70
2022/09/02 11:15:00;;;;;;;0.40;0.40;;;15.40;99.90;;;;;;5063676;28;20574;-70
2022/09/02 11:17:34;;;;;;;0.40;0.40;;;15.40;99.90;;;;;;5034409;28;20262;-70
2022/09/02 11:20:12;;;;;;;0.30;0.30;;;15.30;99.90;;;;;;5073276;28;20535;-71
2022/09/02 11:22:52;;;;;;;0.30;0.30;;;15.50;99.90;;;;;;5072850;28;20199;-69
2022/09/02 11:25:41;;;;;;;0.40;0.40;;;15.60;99.90;;;;;;5054934;28;20739;-71
2022/09/02 11:28:16;;;;;;;0.30;0.30;;;15.90;99.90;;;;;;5073116;28;20224;-69
2022/09/02 11:30:53;;;;;;;0.30;0.30;;;16.10;99.90;;;;;;5072625;28;20207;-70
2022/09/02 11:33:25;;;;;;;0.30;0.30;;;16.20;99.90;;;;;;5071449;28;20279;-70
2022/09/02 11:35:51;;;;;;;0.40;0.40;;;16.20;99.90;;;;;;5072918;28;20185;-70
2022/09/02 11:38:53;;;;;;;0.63;0.52;;;16.30;99.90;;;;;;5072831;28;20272;-69
2022/09/02 11:41:34;;;;;;;0.40;0.40;;;16.70;99.90;;;;;;5072494;28;20253;-70
2022/09/02 11:44:17;;;;;;;0.40;0.40;;;16.80;99.90;;;;;;5072896;28;20188;-70
2022/09/02 11:47:20;;;;;;;0.20;0.20;;;16.80;99.90;;;;;;5072725;28;20223;-70
2022/09/02 11:50:10;;;;;;;0.30;0.30;;;16.90;99.90;;;;;;5072837;28;20287;-70
2022/09/02 11:53:09;;;;;;;0.40;0.40;;;16.70;99.90;;;;;;5072487;28;20209;-70
2022/09/02 11:55:42;;;;;;;0.30;0.30;;;17.00;99.90;;;;;;5072490;28;20196;-70
2022/09/02 11:58:08;;;;;;;0.30;0.30;;;16.90;99.90;;;;;;5072743;28;20590;-70
2022/09/02 12:00:58;;;;;;;0.30;0.30;;;17.10;99.90;;;;;;5072313;28;20272;-70
2022/09/02 12:03:28;;;;;;;0.30;0.30;;;17.10;99.90;;;;;;5072316;28;20193;-69
2022/09/02 12:06:08;;;;;;;0.20;0.20;;;17.00;99.90;;;;;;5072561;28;20200;-70
2022/09/02 12:08:35;;;;;;;0.30;0.30;;;16.90;99.90;;;;;;5061994;28;20565;-70
2022/09/02 12:11:05;;;;;;;0.40;0.40;;;17.10;99.90;;;;;;5052376;28;20752;-70
2022/09/02 12:13:40;;;;;;;0.30;0.30;;;17.30;99.90;;;;;;5052391;28;20274;-70
2022/09/02 12:16:13;;;;;;;0.40;0.40;;;17.50;99.90;;;;;;5055288;28;20213;-70
2022/09/02 12:18:42;;;;;;;0.30;0.30;;;17.60;99.90;;;;;;5056004;28;20193;-70
2022/09/02 12:21:15;;;;;;;0.30;0.30;;;17.50;99.90;;;;;;5057862;28;20330;-70
2022/09/02 12:23:53;;;;;;;0.30;0.30;;;17.60;99.90;;;;;;5076014;28;20197;-70
2022/09/02 12:26:20;;;;;;;0.20;0.20;;;17.70;99.90;;;;;;5056916;28;20232;-70
2022/09/02 12:28:47;;;;;;;0.20;0.20;;;17.90;99.90;;;;;;5055841;28;20687;-69
2022/09/02 12:31:17;;;;;;;0.30;0.30;;;17.90;99.90;;;;;;5055724;28;20205;-69
2022/09/02 12:33:45;;;;;;;0.30;0.30;;;17.50;99.90;;;;;;5068412;28;20695;-70
2022/09/02 12:36:35;;;;;;;0.38;0.38;;;17.30;99.90;;;;;;5057968;28;20658;-69
2022/09/02 12:39:26;;;;;;;0.32;0.32;;;17.50;99.90;;;;;;5057561;28;20292;-69
2022/09/02 12:42:09;;;;;;;0.20;0.20;;;18.00;99.90;;;;;;5075324;28;20267;-69
2022/09/02 12:44:59;;;;;;;0.20;0.20;;;18.60;99.90;;;;;;5075145;28;20212;-70
2022/09/02 12:47:59;;;;;;;0.30;0.30;;;19.00;99.90;;;;;;5075512;28;20197;-70
2022/09/02 12:50:33;;;;;;;0.30;0.30;;;19.30;99.90;;;;;;5071731;28;20216;-69
2022/09/02 12:53:23;;;;;;;0.20;0.20;;;19.30;99.90;;;;;;5075238;28;20560;-70
2022/09/02 12:55:57;;;;;;;0.30;0.30;;;19.20;99.90;;;;;;5075021;28;20180;-69
2022/09/02 12:58:23;;;;;;;0.20;0.20;;;18.70;99.90;;;;;;5074763;28;20188;-69
2022/09/02 13:01:01;;;;;;;0.20;0.20;;;18.30;99.90;;;;;;5074853;28;20647;-69
2022/09/02 13:03:51;;;;;;;0.28;0.28;;;18.00;99.90;;;;;;5056846;28;20189;-69
2022/09/02 13:06:26;;;;;;;0.30;0.30;;;17.70;99.90;;;;;;5054825;28;20655;-69
2022/09/02 13:09:20;;;;;;;0.38;0.38;;;17.70;99.90;;;;;;5054751;28;20548;-69
2022/09/02 13:12:07;;;;;;;0.20;0.20;;;17.50;99.90;;;;;;5026191;28;20578;-69
2022/09/02 13:14:55;;;;;;;0.20;0.20;;;17.70;99.90;;;;;;5054550;28;20205;-70
2022/09/02 13:17:45;;;;;;;0.20;0.20;;;17.80;99.90;;;;;;5071872;28;20197;-70
2022/09/02 13:20:39;;;;;;;0.20;0.20;;;17.80;99.90;;;;;;5074921;28;20192;-70
2022/09/02 13:23:35;;;;;;;0.25;0.25;;;17.60;99.90;;;;;;5069669;28;20194;-70
2022/09/02 13:26:22;;;;;;;0.20;0.20;;;17.60;99.90;;;;;;5058319;28;20229;-70
2022/09/02 13:29:22;;;;;;;0.20;0.20;;;17.70;99.90;;;;;;5074435;28;20209;-70
2022/09/02 13:32:16;;;;;;;0.22;0.22;;;17.90;99.90;;;;;;5074351;28;20208;-70
2022/09/02 13:34:44;;;;;;;0.30;0.30;;;18.10;99.90;;;;;;5074159;28;20699;-70